sensor_id;sensor_type;location;lat;lon;timestamp;temperature;humidity
298;DHT22;133;49.626;9.680;2024-01-15T00:00:01;-2.50;90.50
298;DHT22;133;49.626;9.680;2024-01-15T00:02:26;-2.40;91.10
298;DHT22;133;49.626;9.680;2024-01-15T00:04:52;-2.40;91.00
298;DHT22;133;49.626;9.680;2024-01-15T00:07:18;-2.40;91.10
298;DHT22;133;49.626;9.680;2024-01-15T00:09:43;-2.30;90.90
298;DHT22;133;49.626;9.680;2024-01-15T00:12:09;-2.40;90.90
298;DHT22;133;49.626;9.680;2024-01-15T00:14:35;-2.50;91.70
298;DHT22;133;49.626;9.680;2024-01-15T00:17:01;-2.60;91.90
298;DHT22;133;49.626;9.680;2024-01-15T00:19:26;-2.60;92.10
298;DHT22;133;49.626;9.680;2024-01-15T00:21:52;-2.50;92.30
298;DHT22;133;49.626;9.680;2024-01-15T00:24:18;-2.50;92.20
298;DHT22;133;49.626;9.680;2024-01-15T00:26:44;-2.60;92.00
298;DHT22;133;49.626;9.680;2024-01-15T00:29:10;-2.60;92.30
298;DHT22;133;49.626;9.680;2024-01-15T00:31:36;-2.70;92.80
298;DHT22;133;49.626;9.680;2024-01-15T00:34:02;-2.60;93.10
298;DHT22;133;49.626;9.680;2024-01-15T00:36:27;-2.70;93.20
298;DHT22;133;49.626;9.680;2024-01-15T00:38:53;-2.80;93.60
298;DHT22;133;49.626;9.680;2024-01-15T00:41:19;-2.80;94.20
298;DHT22;133;49.626;9.680;2024-01-15T00:43:45;-2.90;94.30
298;DHT22;133;49.626;9.680;2024-01-15T00:46:11;-2.80;94.50
298;DHT22;133;49.626;9.680;2024-01-15T00:48:37;-2.80;94.40
298;DHT22;133;49.626;9.680;2024-01-15T00:51:04;-2.80;94.50
298;DHT22;133;49.626;9.680;2024-01-15T00:53:30;-2.70;94.60
298;DHT22;133;49.626;9.680;2024-01-15T00:55:56;-2.60;94.20
298;DHT22;133;49.626;9.680;2024-01-15T00:58:34;-2.60;94.20
298;DHT22;133;49.626;9.680;2024-01-15T01:01:00;-2.60;93.90
298;DHT22;133;49.626;9.680;2024-01-15T01:03:25;-2.50;93.90
298;DHT22;133;49.626;9.680;2024-01-15T01:05:51;-2.50;93.40
298;DHT22;133;49.626;9.680;2024-01-15T01:08:17;-2.40;93.20
298;DHT22;133;49.626;9.680;2024-01-15T01:10:43;-2.40;93.20
298;DHT22;133;49.626;9.680;2024-01-15T01:13:09;-2.30;93.00
298;DHT22;133;49.626;9.680;2024-01-15T01:15:38;-2.20;92.90
298;DHT22;133;49.626;9.680;2024-01-15T01:18:04;-2.20;92.90
298;DHT22;133;49.626;9.680;2024-01-15T01:20:30;-2.10;92.90
298;DHT22;133;49.626;9.680;2024-01-15T01:22:56;-2.10;92.30
298;DHT22;133;49.626;9.680;2024-01-15T01:25:21;-2.20;92.40
298;DHT22;133;49.626;9.680;2024-01-15T01:27:47;-2.20;92.60
298;DHT22;133;49.626;9.680;2024-01-15T01:30:13;-2.20;92.70
298;DHT22;133;49.626;9.680;2024-01-15T01:32:39;-2.20;93.00
298;DHT22;133;49.626;9.680;2024-01-15T01:35:07;-2.40;93.00
298;DHT22;133;49.626;9.680;2024-01-15T01:37:32;-2.40;93.30
298;DHT22;133;49.626;9.680;2024-01-15T01:39:59;-2.30;93.30
298;DHT22;133;49.626;9.680;2024-01-15T01:42:25;-2.30;93.50
298;DHT22;133;49.626;9.680;2024-01-15T01:44:51;-2.30;93.40
298;DHT22;133;49.626;9.680;2024-01-15T01:47:16;-2.30;93.50
298;DHT22;133;49.626;9.680;2024-01-15T01:49:42;-2.40;93.60
298;DHT22;133;49.626;9.680;2024-01-15T01:52:09;-2.30;93.50
298;DHT22;133;49.626;9.680;2024-01-15T01:54:35;-2.30;93.50
298;DHT22;133;49.626;9.680;2024-01-15T01:57:03;-2.30;93.50
298;DHT22;133;49.626;9.680;2024-01-15T01:59:33;-2.40;93.50
298;DHT22;133;49.626;9.680;2024-01-15T02:02:05;-2.30;93.80
298;DHT22;133;49.626;9.680;2024-01-15T02:04:40;-2.30;94.00
298;DHT22;133;49.626;9.680;2024-01-15T02:07:06;-2.20;94.00
298;DHT22;133;49.626;9.680;2024-01-15T02:09:32;-2.20;94.20
298;DHT22;133;49.626;9.680;2024-01-15T02:12:01;-2.20;94.20
298;DHT22;133;49.626;9.680;2024-01-15T02:14:30;-2.10;93.90
298;DHT22;133;49.626;9.680;2024-01-15T02:17:05;-2.20;93.90
298;DHT22;133;49.626;9.680;2024-01-15T02:19:30;-2.20;94.20
298;DHT22;133;49.626;9.680;2024-01-15T02:21:56;-2.30;95.10
298;DHT22;133;49.626;9.680;2024-01-15T02:24:22;-2.30;95.70
298;DHT22;133;49.626;9.680;2024-01-15T02:26:48;-2.20;95.80
298;DHT22;133;49.626;9.680;2024-01-15T02:29:15;-2.20;95.60
298;DHT22;133;49.626;9.680;2024-01-15T02:31:42;-2.20;95.50
298;DHT22;133;49.626;9.680;2024-01-15T02:34:07;-2.10;95.30
298;DHT22;133;49.626;9.680;2024-01-15T02:36:33;-2.10;95.30
298;DHT22;133;49.626;9.680;2024-01-15T02:38:59;-2.10;94.90
298;DHT22;133;49.626;9.680;2024-01-15T02:41:30;-2.20;94.80
298;DHT22;133;49.626;9.680;2024-01-15T02:43:58;-2.20;95.20
298;DHT22;133;49.626;9.680;2024-01-15T02:46:24;-2.20;95.30
298;DHT22;133;49.626;9.680;2024-01-15T02:48:50;-2.10;95.20
298;DHT22;133;49.626;9.680;2024-01-15T02:51:19;-2.10;95.00
298;DHT22;133;49.626;9.680;2024-01-15T02:53:45;-2.00;94.90
298;DHT22;133;49.626;9.680;2024-01-15T02:56:14;-2.00;94.80
298;DHT22;133;49.626;9.680;2024-01-15T02:58:42;-2.00;94.80
298;DHT22;133;49.626;9.680;2024-01-15T03:01:07;-2.00;94.90
298;DHT22;133;49.626;9.680;2024-01-15T03:03:42;-2.10;95.00
298;DHT22;133;49.626;9.680;2024-01-15T03:06:10;-2.00;95.20
298;DHT22;133;49.626;9.680;2024-01-15T03:08:36;-2.00;95.10
298;DHT22;133;49.626;9.680;2024-01-15T03:11:02;-2.00;94.90
298;DHT22;133;49.626;9.680;2024-01-15T03:13:28;-2.00;94.90
298;DHT22;133;49.626;9.680;2024-01-15T03:15:53;-2.00;94.80
298;DHT22;133;49.626;9.680;2024-01-15T03:18:19;-1.90;94.70
298;DHT22;133;49.626;9.680;2024-01-15T03:20:45;-1.90;94.70
298;DHT22;133;49.626;9.680;2024-01-15T03:23:10;-1.80;94.80
298;DHT22;133;49.626;9.680;2024-01-15T03:25:39;-1.80;94.50
298;DHT22;133;49.626;9.680;2024-01-15T03:28:07;-1.80;94.10
298;DHT22;133;49.626;9.680;2024-01-15T03:30:33;-1.80;94.20
298;DHT22;133;49.626;9.680;2024-01-15T03:33:03;-1.80;94.50
298;DHT22;133;49.626;9.680;2024-01-15T03:35:29;-1.80;94.60
298;DHT22;133;49.626;9.680;2024-01-15T03:37:56;-1.80;94.30
298;DHT22;133;49.626;9.680;2024-01-15T03:40:22;-1.80;94.40
298;DHT22;133;49.626;9.680;2024-01-15T03:42:47;-1.90;94.50
298;DHT22;133;49.626;9.680;2024-01-15T03:45:13;-1.90;94.70
298;DHT22;133;49.626;9.680;2024-01-15T03:47:49;-1.90;95.00
298;DHT22;133;49.626;9.680;2024-01-15T03:50:15;-1.90;95.00
298;DHT22;133;49.626;9.680;2024-01-15T03:52:41;-1.80;94.60
298;DHT22;133;49.626;9.680;2024-01-15T03:55:09;-1.90;94.70
298;DHT22;133;49.626;9.680;2024-01-15T03:57:37;-1.90;95.00
298;DHT22;133;49.626;9.680;2024-01-15T04:00:03;-2.00;95.10
298;DHT22;133;49.626;9.680;2024-01-15T04:02:29;-2.00;95.40
298;DHT22;133;49.626;9.680;2024-01-15T04:04:54;-2.00;95.40
298;DHT22;133;49.626;9.680;2024-01-15T04:07:20;-2.10;95.70
298;DHT22;133;49.626;9.680;2024-01-15T04:09:45;-2.10;95.90
298;DHT22;133;49.626;9.680;2024-01-15T04:12:11;-2.10;95.60
298;DHT22;133;49.626;9.680;2024-01-15T04:14:37;-2.00;95.50
298;DHT22;133;49.626;9.680;2024-01-15T04:17:06;-2.00;95.30
298;DHT22;133;49.626;9.680;2024-01-15T04:19:35;-1.90;95.20
298;DHT22;133;49.626;9.680;2024-01-15T04:22:00;-1.90;95.20
298;DHT22;133;49.626;9.680;2024-01-15T04:24:26;-1.90;95.10
298;DHT22;133;49.626;9.680;2024-01-15T04:26:52;-2.00;95.20
298;DHT22;133;49.626;9.680;2024-01-15T04:29:18;-1.90;95.20
298;DHT22;133;49.626;9.680;2024-01-15T04:31:43;-2.00;95.10
298;DHT22;133;49.626;9.680;2024-01-15T04:34:09;-2.00;95.10
298;DHT22;133;49.626;9.680;2024-01-15T04:36:39;-2.00;95.50
298;DHT22;133;49.626;9.680;2024-01-15T04:39:05;-1.90;95.10
298;DHT22;133;49.626;9.680;2024-01-15T04:41:31;-2.00;94.90
298;DHT22;133;49.626;9.680;2024-01-15T04:43:57;-1.90;95.20
298;DHT22;133;49.626;9.680;2024-01-15T04:46:22;-1.90;95.30
298;DHT22;133;49.626;9.680;2024-01-15T04:48:48;-1.90;95.20
298;DHT22;133;49.626;9.680;2024-01-15T04:51:13;-1.90;95.30
298;DHT22;133;49.626;9.680;2024-01-15T04:53:39;-1.90;95.10
298;DHT22;133;49.626;9.680;2024-01-15T04:56:05;-1.90;95.20
298;DHT22;133;49.626;9.680;2024-01-15T04:58:30;-1.90;95.20
298;DHT22;133;49.626;9.680;2024-01-15T05:00:56;-1.80;95.50
298;DHT22;133;49.626;9.680;2024-01-15T05:03:22;-1.80;95.20
298;DHT22;133;49.626;9.680;2024-01-15T05:05:53;-1.70;95.10
298;DHT22;133;49.626;9.680;2024-01-15T05:08:19;-1.70;94.70
298;DHT22;133;49.626;9.680;2024-01-15T05:10:50;-1.70;94.60
298;DHT22;133;49.626;9.680;2024-01-15T05:13:16;-1.80;94.90
298;DHT22;133;49.626;9.680;2024-01-15T05:15:41;-1.80;94.90
298;DHT22;133;49.626;9.680;2024-01-15T05:18:07;-1.70;94.70
298;DHT22;133;49.626;9.680;2024-01-15T05:20:39;-1.70;94.60
298;DHT22;133;49.626;9.680;2024-01-15T05:23:04;-1.80;94.70
298;DHT22;133;49.626;9.680;2024-01-15T05:25:30;-1.70;94.80
298;DHT22;133;49.626;9.680;2024-01-15T05:28:06;-1.70;94.60
298;DHT22;133;49.626;9.680;2024-01-15T05:30:34;-1.60;94.70
298;DHT22;133;49.626;9.680;2024-01-15T05:33:00;-1.50;94.30
298;DHT22;133;49.626;9.680;2024-01-15T05:35:26;-1.60;94.00
298;DHT22;133;49.626;9.680;2024-01-15T05:37:52;-1.60;94.30
298;DHT22;133;49.626;9.680;2024-01-15T05:40:18;-1.60;94.50
298;DHT22;133;49.626;9.680;2024-01-15T05:42:47;-1.60;94.70
298;DHT22;133;49.626;9.680;2024-01-15T05:45:13;-1.70;95.10
298;DHT22;133;49.626;9.680;2024-01-15T05:47:39;-1.80;95.40
298;DHT22;133;49.626;9.680;2024-01-15T05:50:05;-1.70;95.60
298;DHT22;133;49.626;9.680;2024-01-15T05:52:37;-1.60;95.40
298;DHT22;133;49.626;9.680;2024-01-15T05:55:08;-1.60;95.10
298;DHT22;133;49.626;9.680;2024-01-15T05:57:36;-1.60;94.80
298;DHT22;133;49.626;9.680;2024-01-15T06:00:03;-1.60;94.60
298;DHT22;133;49.626;9.680;2024-01-15T06:02:29;-1.50;94.60
298;DHT22;133;49.626;9.680;2024-01-15T06:04:55;-1.60;94.50
298;DHT22;133;49.626;9.680;2024-01-15T06:07:23;-1.60;94.70
298;DHT22;133;49.626;9.680;2024-01-15T06:09:55;-1.60;94.90
298;DHT22;133;49.626;9.680;2024-01-15T06:12:23;-1.60;94.80
298;DHT22;133;49.626;9.680;2024-01-15T06:14:51;-1.50;94.50
298;DHT22;133;49.626;9.680;2024-01-15T06:17:31;-1.50;94.40
298;DHT22;133;49.626;9.680;2024-01-15T06:20:02;-1.50;94.30
298;DHT22;133;49.626;9.680;2024-01-15T06:22:28;-1.40;94.30
298;DHT22;133;49.626;9.680;2024-01-15T06:24:54;-1.50;94.10
298;DHT22;133;49.626;9.680;2024-01-15T06:27:21;-1.60;94.40
298;DHT22;133;49.626;9.680;2024-01-15T06:29:47;-1.50;94.50
298;DHT22;133;49.626;9.680;2024-01-15T06:32:13;-1.50;94.40
298;DHT22;133;49.626;9.680;2024-01-15T06:34:39;-1.40;94.50
298;DHT22;133;49.626;9.680;2024-01-15T06:37:05;-1.50;94.20
298;DHT22;133;49.626;9.680;2024-01-15T06:39:31;-1.50;94.30
298;DHT22;133;49.626;9.680;2024-01-15T06:41:57;-1.50;94.30
298;DHT22;133;49.626;9.680;2024-01-15T06:44:28;-1.60;94.40
298;DHT22;133;49.626;9.680;2024-01-15T06:47:05;-1.60;94.70
298;DHT22;133;49.626;9.680;2024-01-15T06:49:32;-1.60;94.90
298;DHT22;133;49.626;9.680;2024-01-15T06:51:58;-1.60;95.00
298;DHT22;133;49.626;9.680;2024-01-15T06:54:26;-1.60;94.80
298;DHT22;133;49.626;9.680;2024-01-15T06:56:52;-1.70;95.20
298;DHT22;133;49.626;9.680;2024-01-15T06:59:18;-1.70;95.10
298;DHT22;133;49.626;9.680;2024-01-15T07:01:44;-1.70;95.40
298;DHT22;133;49.626;9.680;2024-01-15T07:04:10;-1.70;95.40
298;DHT22;133;49.626;9.680;2024-01-15T07:06:36;-1.70;95.30
298;DHT22;133;49.626;9.680;2024-01-15T07:09:05;-1.70;95.40
298;DHT22;133;49.626;9.680;2024-01-15T07:11:31;-1.60;95.40
298;DHT22;133;49.626;9.680;2024-01-15T07:13:57;-1.60;95.30
298;DHT22;133;49.626;9.680;2024-01-15T07:16:31;-1.70;95.40
298;DHT22;133;49.626;9.680;2024-01-15T07:19:00;-1.60;95.50
298;DHT22;133;49.626;9.680;2024-01-15T07:21:29;-1.60;95.40
298;DHT22;133;49.626;9.680;2024-01-15T07:23:55;-1.60;95.20
298;DHT22;133;49.626;9.680;2024-01-15T07:26:21;-1.60;95.40
298;DHT22;133;49.626;9.680;2024-01-15T07:28:47;-1.60;95.20
298;DHT22;133;49.626;9.680;2024-01-15T07:31:15;-1.60;95.30
298;DHT22;133;49.626;9.680;2024-01-15T07:33:44;-1.60;95.40
298;DHT22;133;49.626;9.680;2024-01-15T07:36:10;-1.50;95.30
298;DHT22;133;49.626;9.680;2024-01-15T07:38:35;-1.50;95.20
298;DHT22;133;49.626;9.680;2024-01-15T07:41:01;-1.50;95.30
298;DHT22;133;49.626;9.680;2024-01-15T07:43:27;-1.50;95.40
298;DHT22;133;49.626;9.680;2024-01-15T07:45:53;-1.50;95.70
298;DHT22;133;49.626;9.680;2024-01-15T07:48:19;-1.50;95.70
298;DHT22;133;49.626;9.680;2024-01-15T07:50:45;-1.50;95.60
298;DHT22;133;49.626;9.680;2024-01-15T07:53:11;-1.50;95.70
298;DHT22;133;49.626;9.680;2024-01-15T07:55:37;-1.50;95.70
298;DHT22;133;49.626;9.680;2024-01-15T07:58:03;-1.50;95.70
298;DHT22;133;49.626;9.680;2024-01-15T08:00:28;-1.40;95.90
298;DHT22;133;49.626;9.680;2024-01-15T08:02:54;-1.40;95.70
298;DHT22;133;49.626;9.680;2024-01-15T08:05:20;-1.40;95.70
298;DHT22;133;49.626;9.680;2024-01-15T08:07:46;-1.30;95.50
298;DHT22;133;49.626;9.680;2024-01-15T08:10:12;-1.30;95.60
298;DHT22;133;49.626;9.680;2024-01-15T08:12:39;-1.30;95.70
298;DHT22;133;49.626;9.680;2024-01-15T08:15:05;-1.30;95.60
298;DHT22;133;49.626;9.680;2024-01-15T08:17:36;-1.30;95.70
298;DHT22;133;49.626;9.680;2024-01-15T08:20:02;-1.20;95.40
298;DHT22;133;49.626;9.680;2024-01-15T08:22:28;-1.20;95.30
298;DHT22;133;49.626;9.680;2024-01-15T08:24:54;-1.10;95.10
298;DHT22;133;49.626;9.680;2024-01-15T08:27:23;-1.20;95.30
298;DHT22;133;49.626;9.680;2024-01-15T08:29:49;-1.10;95.20
298;DHT22;133;49.626;9.680;2024-01-15T08:32:15;-1.10;95.10
298;DHT22;133;49.626;9.680;2024-01-15T08:34:41;-1.00;95.20
298;DHT22;133;49.626;9.680;2024-01-15T08:39:50;-1.00;95.30
298;DHT22;133;49.626;9.680;2024-01-15T08:42:15;-1.00;95.10
298;DHT22;133;49.626;9.680;2024-01-15T08:44:41;-1.00;95.40
298;DHT22;133;49.626;9.680;2024-01-15T08:47:09;-0.90;95.20
298;DHT22;133;49.626;9.680;2024-01-15T08:49:34;-0.90;96.00
298;DHT22;133;49.626;9.680;2024-01-15T08:52:01;-0.90;96.60
298;DHT22;133;49.626;9.680;2024-01-15T08:54:27;-0.90;96.90
298;DHT22;133;49.626;9.680;2024-01-15T08:56:56;-1.00;97.40
298;DHT22;133;49.626;9.680;2024-01-15T08:59:22;-1.00;97.90
298;DHT22;133;49.626;9.680;2024-01-15T09:01:54;-1.00;97.50
298;DHT22;133;49.626;9.680;2024-01-15T09:04:25;-1.00;97.70
298;DHT22;133;49.626;9.680;2024-01-15T09:06:54;-0.90;97.60
298;DHT22;133;49.626;9.680;2024-01-15T09:09:20;-0.80;97.20
298;DHT22;133;49.626;9.680;2024-01-15T09:11:45;-0.70;96.50
298;DHT22;133;49.626;9.680;2024-01-15T09:14:12;-0.60;96.30
298;DHT22;133;49.626;9.680;2024-01-15T09:16:45;-0.60;95.80
298;DHT22;133;49.626;9.680;2024-01-15T09:19:17;-0.60;95.20
298;DHT22;133;49.626;9.680;2024-01-15T09:21:46;-0.60;95.30
298;DHT22;133;49.626;9.680;2024-01-15T09:24:12;-0.60;95.60
298;DHT22;133;49.626;9.680;2024-01-15T09:26:38;-0.60;95.40
298;DHT22;133;49.626;9.680;2024-01-15T09:29:06;-0.60;95.70
298;DHT22;133;49.626;9.680;2024-01-15T09:31:32;-0.50;96.00
298;DHT22;133;49.626;9.680;2024-01-15T09:33:58;-0.60;95.70
298;DHT22;133;49.626;9.680;2024-01-15T09:36:25;-0.60;95.80
298;DHT22;133;49.626;9.680;2024-01-15T09:38:51;-0.50;95.70
298;DHT22;133;49.626;9.680;2024-01-15T09:41:17;-0.60;96.00
298;DHT22;133;49.626;9.680;2024-01-15T09:43:48;-0.50;96.10
298;DHT22;133;49.626;9.680;2024-01-15T09:46:21;-0.60;95.80
298;DHT22;133;49.626;9.680;2024-01-15T09:48:47;-0.50;96.10
298;DHT22;133;49.626;9.680;2024-01-15T09:51:23;-0.40;95.60
298;DHT22;133;49.626;9.680;2024-01-15T09:53:55;-0.30;95.00
298;DHT22;133;49.626;9.680;2024-01-15T09:56:31;-0.30;94.90
298;DHT22;133;49.626;9.680;2024-01-15T09:58:57;-0.30;94.70
298;DHT22;133;49.626;9.680;2024-01-15T10:01:44;-0.30;94.80
298;DHT22;133;49.626;9.680;2024-01-15T10:04:11;-0.20;94.90
298;DHT22;133;49.626;9.680;2024-01-15T10:06:38;-0.10;94.80
298;DHT22;133;49.626;9.680;2024-01-15T10:09:05;-0.10;94.10
298;DHT22;133;49.626;9.680;2024-01-15T10:11:31;0.00;93.80
298;DHT22;133;49.626;9.680;2024-01-15T10:13:57;0.10;93.70
298;DHT22;133;49.626;9.680;2024-01-15T10:16:23;0.00;93.50
298;DHT22;133;49.626;9.680;2024-01-15T10:20:03;0.00;93.50
298;DHT22;133;49.626;9.680;2024-01-15T10:22:32;0.00;93.30
298;DHT22;133;49.626;9.680;2024-01-15T10:25:03;-0.10;93.70
298;DHT22;133;49.626;9.680;2024-01-15T10:27:36;-0.10;93.80
298;DHT22;133;49.626;9.680;2024-01-15T10:30:19;-0.10;93.90
298;DHT22;133;49.626;9.680;2024-01-15T10:33:21;0.00;93.90
298;DHT22;133;49.626;9.680;2024-01-15T10:35:53;-0.10;94.40
298;DHT22;133;49.626;9.680;2024-01-15T10:38:20;-0.10;94.30
298;DHT22;133;49.626;9.680;2024-01-15T10:43:51;0.00;94.10
298;DHT22;133;49.626;9.680;2024-01-15T10:46:28;0.00;94.10
298;DHT22;133;49.626;9.680;2024-01-15T10:49:10;-0.10;94.20
298;DHT22;133;49.626;9.680;2024-01-15T10:51:57;-0.10;94.40
298;DHT22;133;49.626;9.680;2024-01-15T10:54:23;-0.10;94.80
298;DHT22;133;49.626;9.680;2024-01-15T10:56:50;0.10;94.50
298;DHT22;133;49.626;9.680;2024-01-15T10:59:18;0.10;94.00
298;DHT22;133;49.626;9.680;2024-01-15T11:01:45;0.20;93.90
298;DHT22;133;49.626;9.680;2024-01-15T11:04:12;0.10;93.90
298;DHT22;133;49.626;9.680;2024-01-15T11:06:46;0.10;94.10
298;DHT22;133;49.626;9.680;2024-01-15T11:09:13;0.20;94.10
298;DHT22;133;49.626;9.680;2024-01-15T11:11:41;0.10;94.00
298;DHT22;133;49.626;9.680;2024-01-15T11:14:07;0.10;94.20
298;DHT22;133;49.626;9.680;2024-01-15T11:16:55;0.10;94.20
298;DHT22;133;49.626;9.680;2024-01-15T11:19:47;0.10;94.30
298;DHT22;133;49.626;9.680;2024-01-15T11:25:21;0.20;94.40
298;DHT22;133;49.626;9.680;2024-01-15T11:27:51;0.10;94.40
298;DHT22;133;49.626;9.680;2024-01-15T11:30:25;0.10;94.60
298;DHT22;133;49.626;9.680;2024-01-15T11:32:50;0.20;94.50
298;DHT22;133;49.626;9.680;2024-01-15T11:35:16;0.20;94.60
298;DHT22;133;49.626;9.680;2024-01-15T11:40:21;0.20;94.70
298;DHT22;133;49.626;9.680;2024-01-15T11:42:48;0.30;94.20
298;DHT22;133;49.626;9.680;2024-01-15T11:45:19;0.30;94.10
298;DHT22;133;49.626;9.680;2024-01-15T11:48:17;0.20;94.40
298;DHT22;133;49.626;9.680;2024-01-15T11:50:45;0.30;94.80
298;DHT22;133;49.626;9.680;2024-01-15T11:53:32;0.30;94.70
298;DHT22;133;49.626;9.680;2024-01-15T11:56:03;0.30;94.50
298;DHT22;133;49.626;9.680;2024-01-15T11:58:29;0.30;95.30
298;DHT22;133;49.626;9.680;2024-01-15T12:00:55;0.20;95.70
298;DHT22;133;49.626;9.680;2024-01-15T12:03:26;0.10;95.70
298;DHT22;133;49.626;9.680;2024-01-15T12:05:52;0.20;96.40
298;DHT22;133;49.626;9.680;2024-01-15T12:08:22;0.20;96.30
298;DHT22;133;49.626;9.680;2024-01-15T12:10:47;0.30;96.20
298;DHT22;133;49.626;9.680;2024-01-15T12:13:14;0.20;96.00
298;DHT22;133;49.626;9.680;2024-01-15T12:15:41;0.20;96.40
298;DHT22;133;49.626;9.680;2024-01-15T12:18:08;0.30;96.50
298;DHT22;133;49.626;9.680;2024-01-15T12:20:37;0.30;96.30
298;DHT22;133;49.626;9.680;2024-01-15T12:23:09;0.30;95.60
298;DHT22;133;49.626;9.680;2024-01-15T12:25:35;0.20;96.30
298;DHT22;133;49.626;9.680;2024-01-15T12:28:01;0.30;96.70
298;DHT22;133;49.626;9.680;2024-01-15T12:30:28;0.30;96.40
298;DHT22;133;49.626;9.680;2024-01-15T12:32:54;0.30;96.50
298;DHT22;133;49.626;9.680;2024-01-15T12:35:20;0.40;96.50
298;DHT22;133;49.626;9.680;2024-01-15T12:37:47;0.30;96.60
298;DHT22;133;49.626;9.680;2024-01-15T12:40:18;0.30;96.80
298;DHT22;133;49.626;9.680;2024-01-15T12:42:44;0.30;96.40
298;DHT22;133;49.626;9.680;2024-01-15T12:45:11;0.30;96.70
298;DHT22;133;49.626;9.680;2024-01-15T12:47:37;0.30;96.70
298;DHT22;133;49.626;9.680;2024-01-15T12:50:09;0.40;96.20
298;DHT22;133;49.626;9.680;2024-01-15T12:52:35;0.30;96.20
298;DHT22;133;49.626;9.680;2024-01-15T12:55:04;0.40;96.10
298;DHT22;133;49.626;9.680;2024-01-15T12:57:30;0.50;95.70
298;DHT22;133;49.626;9.680;2024-01-15T12:59:55;0.70;95.00
298;DHT22;133;49.626;9.680;2024-01-15T13:02:21;0.70;94.70
298;DHT22;133;49.626;9.680;2024-01-15T13:04:47;0.80;94.30
298;DHT22;133;49.626;9.680;2024-01-15T13:07:12;0.80;93.50
298;DHT22;133;49.626;9.680;2024-01-15T13:09:38;1.00;93.50
298;DHT22;133;49.626;9.680;2024-01-15T13:12:05;1.10;93.10
298;DHT22;133;49.626;9.680;2024-01-15T13:14:31;1.10;92.20
298;DHT22;133;49.626;9.680;2024-01-15T13:16:58;1.20;92.40
298;DHT22;133;49.626;9.680;2024-01-15T13:19:27;1.30;91.70
298;DHT22;133;49.626;9.680;2024-01-15T13:21:56;1.30;91.40
298;DHT22;133;49.626;9.680;2024-01-15T13:24:24;1.40;91.30
298;DHT22;133;49.626;9.680;2024-01-15T13:26:49;1.50;90.40
298;DHT22;133;49.626;9.680;2024-01-15T13:29:15;1.60;90.30
298;DHT22;133;49.626;9.680;2024-01-15T13:31:41;1.60;89.70
298;DHT22;133;49.626;9.680;2024-01-15T13:34:10;1.80;90.10
298;DHT22;133;49.626;9.680;2024-01-15T13:36:36;1.80;89.50
298;DHT22;133;49.626;9.680;2024-01-15T13:39:04;1.70;89.30
298;DHT22;133;49.626;9.680;2024-01-15T13:41:34;1.70;90.30
298;DHT22;133;49.626;9.680;2024-01-15T13:44:00;1.70;90.10
298;DHT22;133;49.626;9.680;2024-01-15T13:46:26;1.70;90.30
298;DHT22;133;49.626;9.680;2024-01-15T13:48:52;1.60;90.40
298;DHT22;133;49.626;9.680;2024-01-15T13:51:19;1.50;90.60
298;DHT22;133;49.626;9.680;2024-01-15T13:53:45;1.50;91.70
298;DHT22;133;49.626;9.680;2024-01-15T13:56:11;1.50;92.00
298;DHT22;133;49.626;9.680;2024-01-15T13:58:37;1.30;93.00
298;DHT22;133;49.626;9.680;2024-01-15T14:01:03;1.10;94.20
298;DHT22;133;49.626;9.680;2024-01-15T14:03:31;1.10;95.10
298;DHT22;133;49.626;9.680;2024-01-15T14:05:57;1.20;94.90
298;DHT22;133;49.626;9.680;2024-01-15T14:08:26;1.30;94.80
298;DHT22;133;49.626;9.680;2024-01-15T14:10:52;1.30;94.30
298;DHT22;133;49.626;9.680;2024-01-15T14:13:19;1.20;94.50
298;DHT22;133;49.626;9.680;2024-01-15T14:15:45;1.20;94.30
298;DHT22;133;49.626;9.680;2024-01-15T14:18:10;1.20;94.20
298;DHT22;133;49.626;9.680;2024-01-15T14:20:36;1.00;94.30
298;DHT22;133;49.626;9.680;2024-01-15T14:23:02;0.90;94.90
298;DHT22;133;49.626;9.680;2024-01-15T14:25:28;0.90;95.50
298;DHT22;133;49.626;9.680;2024-01-15T14:27:53;0.90;95.90
298;DHT22;133;49.626;9.680;2024-01-15T14:30:19;0.90;96.30
298;DHT22;133;49.626;9.680;2024-01-15T14:32:44;0.90;96.80
298;DHT22;133;49.626;9.680;2024-01-15T14:35:10;0.90;97.00
298;DHT22;133;49.626;9.680;2024-01-15T14:37:39;0.80;97.20
298;DHT22;133;49.626;9.680;2024-01-15T14:40:07;0.90;97.30
298;DHT22;133;49.626;9.680;2024-01-15T14:42:34;0.80;97.70
298;DHT22;133;49.626;9.680;2024-01-15T14:45:00;0.80;98.20
298;DHT22;133;49.626;9.680;2024-01-15T14:47:28;0.70;98.30
298;DHT22;133;49.626;9.680;2024-01-15T14:49:53;0.70;98.00
298;DHT22;133;49.626;9.680;2024-01-15T14:52:19;0.70;98.00
298;DHT22;133;49.626;9.680;2024-01-15T14:54:45;0.70;97.80
298;DHT22;133;49.626;9.680;2024-01-15T14:57:13;0.70;98.00
298;DHT22;133;49.626;9.680;2024-01-15T14:59:39;0.70;97.30
298;DHT22;133;49.626;9.680;2024-01-15T15:02:05;0.70;97.40
298;DHT22;133;49.626;9.680;2024-01-15T15:04:32;0.70;97.20
298;DHT22;133;49.626;9.680;2024-01-15T15:06:57;0.70;97.40
298;DHT22;133;49.626;9.680;2024-01-15T15:09:23;0.70;97.00
298;DHT22;133;49.626;9.680;2024-01-15T15:11:49;0.70;96.30
298;DHT22;133;49.626;9.680;2024-01-15T15:14:14;0.80;96.30
298;DHT22;133;49.626;9.680;2024-01-15T15:16:40;0.80;96.00
298;DHT22;133;49.626;9.680;2024-01-15T15:19:06;0.70;96.40
298;DHT22;133;49.626;9.680;2024-01-15T15:21:31;0.70;96.20
298;DHT22;133;49.626;9.680;2024-01-15T15:23:57;0.70;96.30
298;DHT22;133;49.626;9.680;2024-01-15T15:26:22;0.70;96.00
298;DHT22;133;49.626;9.680;2024-01-15T15:28:48;0.70;96.00
298;DHT22;133;49.626;9.680;2024-01-15T15:31:14;0.70;96.10
298;DHT22;133;49.626;9.680;2024-01-15T15:33:40;0.70;95.60
298;DHT22;133;49.626;9.680;2024-01-15T15:36:10;0.60;95.80
298;DHT22;133;49.626;9.680;2024-01-15T15:38:37;0.70;95.30
298;DHT22;133;49.626;9.680;2024-01-15T15:41:03;0.70;94.90
298;DHT22;133;49.626;9.680;2024-01-15T15:43:29;0.80;94.90
298;DHT22;133;49.626;9.680;2024-01-15T15:45:55;0.80;94.70
298;DHT22;133;49.626;9.680;2024-01-15T15:48:23;0.80;94.80
298;DHT22;133;49.626;9.680;2024-01-15T15:50:50;0.90;94.50
298;DHT22;133;49.626;9.680;2024-01-15T15:53:16;0.90;94.60
298;DHT22;133;49.626;9.680;2024-01-15T15:55:42;0.80;94.50
298;DHT22;133;49.626;9.680;2024-01-15T15:58:09;0.90;94.70
298;DHT22;133;49.626;9.680;2024-01-15T16:00:35;0.90;94.50
298;DHT22;133;49.626;9.680;2024-01-15T16:03:00;0.90;94.00
298;DHT22;133;49.626;9.680;2024-01-15T16:05:26;0.90;94.00
298;DHT22;133;49.626;9.680;2024-01-15T16:07:52;0.90;93.80
298;DHT22;133;49.626;9.680;2024-01-15T16:10:17;0.90;94.00
298;DHT22;133;49.626;9.680;2024-01-15T16:12:45;0.80;94.30
298;DHT22;133;49.626;9.680;2024-01-15T16:15:17;0.80;94.40
298;DHT22;133;49.626;9.680;2024-01-15T16:17:44;0.90;93.80
298;DHT22;133;49.626;9.680;2024-01-15T16:20:10;0.80;93.90
298;DHT22;133;49.626;9.680;2024-01-15T16:22:41;0.80;94.00
298;DHT22;133;49.626;9.680;2024-01-15T16:25:07;0.80;93.80
298;DHT22;133;49.626;9.680;2024-01-15T16:27:35;1.00;93.70
298;DHT22;133;49.626;9.680;2024-01-15T16:30:03;1.00;93.60
298;DHT22;133;49.626;9.680;2024-01-15T16:32:28;0.90;93.10
298;DHT22;133;49.626;9.680;2024-01-15T16:34:54;0.90;92.50
298;DHT22;133;49.626;9.680;2024-01-15T16:37:20;0.80;92.70
298;DHT22;133;49.626;9.680;2024-01-15T16:39:46;0.80;92.90
298;DHT22;133;49.626;9.680;2024-01-15T16:42:11;0.90;92.80
298;DHT22;133;49.626;9.680;2024-01-15T16:44:37;0.90;92.80
298;DHT22;133;49.626;9.680;2024-01-15T16:47:03;0.80;92.80
298;DHT22;133;49.626;9.680;2024-01-15T16:49:30;0.80;93.00
298;DHT22;133;49.626;9.680;2024-01-15T16:51:55;0.80;92.70
298;DHT22;133;49.626;9.680;2024-01-15T16:54:21;0.80;92.60